Time;durP1;ratioP1;P1;durP2;ratioP2;P2;SDS_P1;SDS_P2;PMS_P1;PMS_P2;Temp;Humidity;BMP_temperature;BMP_pressure;BME280_temperature;BME280_humidity;BME280_pressure;Samples;Min_cycle;Max_cycle;Signal;HPM_P1;HPM_P2
2023/11/15 00:00:13;;;;;;;5.70;3.40;;;;;;;19.30;43.43;100145.59;102787;1292;61380;-80
2023/11/15 00:02:39;;;;;;;7.00;3.50;;;;;;;19.30;43.54;100137.02;102752;1297;62229;-81
2023/11/15 00:05:05;;;;;;;6.50;3.50;;;;;;;19.30;43.48;100126.29;102794;1292;61349;-81
2023/11/15 00:07:31;;;;;;;5.60;3.60;;;;;;;19.30;43.45;100114.67;102693;1292;61851;-81
2023/11/15 00:09:57;;;;;;;5.90;3.20;;;;;;;19.30;43.50;100108.98;102775;1291;61579;-81
2023/11/15 00:12:24;;;;;;;6.40;3.50;;;;;;;19.30;43.48;100121.80;102745;1295;72544;-81
2023/11/15 00:14:51;;;;;;;5.30;3.50;;;;;;;19.30;43.53;100132.48;102783;1292;74564;-82
2023/11/15 00:17:18;;;;;;;7.00;3.70;;;;;;;19.30;43.49;100133.95;103017;1291;61414;-81
2023/11/15 00:19:45;;;;;;;7.10;3.50;;;;;;;19.30;43.45;100134.48;103436;1285;61468;-80
2023/11/15 00:22:14;;;;;;;6.10;3.40;;;;;;;19.30;43.47;100143.76;103560;1285;73203;-82
2023/11/15 00:24:41;;;;;;;6.00;3.80;;;;;;;19.30;43.34;100155.67;103111;1285;73548;-82
2023/11/15 00:27:08;;;;;;;7.30;3.60;;;;;;;19.31;43.48;100150.29;103399;1288;61280;-82
2023/11/15 00:29:33;;;;;;;5.30;3.40;;;;;;;19.31;43.59;100142.98;103293;1289;61280;-81
2023/11/15 00:31:59;;;;;;;6.50;3.30;;;;;;;19.31;43.51;100141.92;103409;1286;62662;-83
2023/11/15 00:34:26;;;;;;;6.00;3.30;;;;;;;19.31;43.40;100142.23;103294;1285;61340;-82
2023/11/15 00:36:54;;;;;;;5.10;3.10;;;;;;;19.32;43.39;100144.91;103428;1288;61397;-81
2023/11/15 00:39:21;;;;;;;5.00;3.00;;;;;;;19.32;43.37;100146.30;103296;1286;61373;-83
2023/11/15 00:41:47;;;;;;;6.20;3.50;;;;;;;19.32;43.44;100139.53;103304;1286;73421;-82
2023/11/15 00:44:14;;;;;;;6.80;3.20;;;;;;;19.32;43.43;100137.40;103341;1291;61772;-81
2023/11/15 00:46:40;;;;;;;5.40;3.00;;;;;;;19.32;43.32;100137.55;103409;1285;61484;-82
2023/11/15 00:49:06;;;;;;;6.60;3.50;;;;;;;19.32;43.44;100132.19;103277;1285;61484;-82
2023/11/15 00:51:32;;;;;;;5.90;3.30;;;;;;;19.32;43.52;100131.85;103380;1285;61355;-79
2023/11/15 00:54:00;;;;;;;5.40;3.30;;;;;;;19.33;43.37;100133.95;103426;1285;62580;-81
2023/11/15 00:56:26;;;;;;;7.30;3.50;;;;;;;19.33;43.36;100142.85;103355;1285;61394;-82
2023/11/15 00:58:54;;;;;;;5.50;3.10;;;;;;;19.32;43.37;100148.60;103290;1285;61457;-81
2023/11/15 01:01:19;;;;;;;7.20;3.50;;;;;;;19.33;43.34;100144.96;103291;1286;73514;-82
2023/11/15 01:03:55;;;;;;;6.00;3.40;;;;;;;19.33;43.46;100150.66;103343;1286;61956;-82
2023/11/15 01:06:22;;;;;;;6.30;3.00;;;;;;;19.34;43.28;100139.03;103413;1286;61327;-81
2023/11/15 01:08:48;;;;;;;4.70;2.90;;;;;;;19.33;43.34;100129.45;103347;1285;62421;-82
2023/11/15 01:11:13;;;;;;;5.40;2.90;;;;;;;19.34;43.40;100132.59;103301;1286;61490;-82
2023/11/15 01:13:39;;;;;;;6.30;3.10;;;;;;;19.34;43.35;100124.59;103341;1285;61462;-85
2023/11/15 01:16:05;;;;;;;5.90;3.20;;;;;;;19.34;43.44;100121.16;103396;1288;61397;-81
2023/11/15 01:18:34;;;;;;;7.00;3.30;;;;;;;19.34;43.38;100116.30;103331;1285;62557;-85
2023/11/15 01:21:01;;;;;;;6.00;3.50;;;;;;;19.34;43.30;100100.83;103418;1289;61320;-81
2023/11/15 01:23:28;;;;;;;5.80;3.30;;;;;;;19.34;43.43;100094.20;103315;1286;61624;-82
2023/11/15 01:25:54;;;;;;;5.50;3.40;;;;;;;19.34;43.39;100083.29;103326;1286;61414;-81
2023/11/15 01:28:21;;;;;;;5.80;3.20;;;;;;;19.34;43.30;100074.39;103380;1285;61371;-81
2023/11/15 01:30:47;;;;;;;6.40;3.10;;;;;;;19.35;43.42;100067.20;103258;1285;62542;-81
2023/11/15 01:33:12;;;;;;;6.90;3.30;;;;;;;19.35;43.32;100063.10;103389;1285;61463;-82
2023/11/15 01:35:38;;;;;;;5.00;3.20;;;;;;;19.36;43.27;100057.70;103337;1285;62091;-81
2023/11/15 01:38:03;;;;;;;8.70;3.40;;;;;;;19.35;43.36;100055.61;103343;1285;61378;-81
2023/11/15 01:40:33;;;;;;;5.50;3.40;;;;;;;19.35;43.32;100047.22;103392;1285;61400;-80
2023/11/15 01:42:59;;;;;;;6.70;3.70;;;;;;;19.35;43.32;100038.27;103467;1285;72457;-83
2023/11/15 01:45:25;;;;;;;4.90;3.00;;;;;;;19.35;43.29;100027.92;103356;1290;61660;-81
2023/11/15 01:47:51;;;;;;;5.50;3.10;;;;;;;19.36;43.37;100022.71;103372;1285;62563;-81
2023/11/15 01:50:17;;;;;;;7.70;3.50;;;;;;;19.36;43.24;100021.81;103314;1285;61279;-82
2023/11/15 01:52:44;;;;;;;5.00;3.10;;;;;;;19.36;43.21;100021.95;103367;1285;61397;-81
2023/11/15 01:55:12;;;;;;;5.10;3.30;;;;;;;19.36;43.30;100019.85;103295;1291;61347;-81
2023/11/15 01:57:41;;;;;;;5.50;3.20;;;;;;;19.37;43.23;100020.70;103400;1286;61479;-81
2023/11/15 02:00:08;;;;;;;5.60;3.30;;;;;;;19.37;43.21;100027.48;103258;1285;61382;-82
2023/11/15 02:02:35;;;;;;;5.90;3.10;;;;;;;19.37;43.23;100031.55;103280;1290;73436;-81
2023/11/15 02:05:01;;;;;;;5.20;3.10;;;;;;;19.37;43.27;100029.21;103345;1290;75382;-83
2023/11/15 02:07:26;;;;;;;5.50;3.30;;;;;;;19.37;43.34;100031.33;103293;1286;61392;-82
2023/11/15 02:09:52;;;;;;;5.30;3.50;;;;;;;19.38;43.20;100032.20;103436;1285;61452;-81
2023/11/15 02:12:19;;;;;;;5.20;3.20;;;;;;;19.37;43.33;100024.39;103290;1291;61360;-82
2023/11/15 02:14:48;;;;;;;6.70;3.10;;;;;;;19.38;43.31;100023.09;103308;1286;74271;-83
2023/11/15 02:17:16;;;;;;;5.40;3.00;;;;;;;19.38;43.16;100028.76;103490;1286;61377;-82
2023/11/15 02:19:42;;;;;;;6.90;3.60;;;;;;;19.38;43.24;100033.60;103420;1286;61455;-83
2023/11/15 02:22:09;;;;;;;5.70;3.20;;;;;;;19.39;43.23;100037.48;103441;1286;62536;-81
2023/11/15 02:24:35;;;;;;;5.80;3.20;;;;;;;19.38;43.26;100038.77;103431;1291;61869;-80
2023/11/15 02:27:00;;;;;;;5.30;3.30;;;;;;;19.39;43.24;100041.36;103325;1286;61470;-82
2023/11/15 02:29:27;;;;;;;5.20;3.00;;;;;;;19.39;43.22;100036.04;103419;1291;62564;-83
2023/11/15 02:31:53;;;;;;;5.50;2.90;;;;;;;19.39;43.24;100042.80;103349;1285;61393;-81
2023/11/15 02:34:19;;;;;;;4.70;2.90;;;;;;;19.39;43.11;100052.44;103255;1285;61444;-82
2023/11/15 02:36:44;;;;;;;6.60;3.20;;;;;;;19.40;43.16;100062.91;103383;1291;61445;-81
2023/11/15 02:39:10;;;;;;;5.20;3.30;;;;;;;19.40;43.20;100062.17;102946;1292;61393;-80
2023/11/15 02:41:36;;;;;;;6.20;3.30;;;;;;;19.40;43.24;100058.06;103441;1285;61365;-80
2023/11/15 02:44:05;;;;;;;6.00;2.90;;;;;;;19.40;43.04;100058.09;103267;1289;61807;-82
2023/11/15 02:46:31;;;;;;;5.40;3.10;;;;;;;19.41;43.13;100058.05;103323;1286;74426;-81
2023/11/15 02:48:57;;;;;;;6.00;3.70;;;;;;;19.40;43.26;100048.61;103160;1288;61876;-82
2023/11/15 02:51:22;;;;;;;6.50;3.50;;;;;;;19.40;43.22;100047.00;103487;1285;61353;-83
2023/11/15 02:53:48;;;;;;;6.10;3.20;;;;;;;19.40;43.13;100042.34;103438;1288;61393;-82
2023/11/15 02:56:14;;;;;;;6.00;3.10;;;;;;;19.41;43.16;100039.09;103354;1286;61765;-81
2023/11/15 02:58:40;;;;;;;5.30;3.20;;;;;;;19.41;43.07;100033.73;103416;1288;61362;-83
2023/11/15 03:01:10;;;;;;;5.80;2.90;;;;;;;19.41;43.16;100031.03;103432;1285;61362;-81
2023/11/15 03:03:36;;;;;;;5.10;2.80;;;;;;;19.41;43.07;100026.41;103391;1285;61404;-81
2023/11/15 03:06:03;;;;;;;5.30;3.10;;;;;;;19.41;43.17;100026.41;103393;1286;61820;-80
2023/11/15 03:08:30;;;;;;;5.30;3.30;;;;;;;19.42;43.09;100024.39;103322;1286;74351;-82
2023/11/15 03:10:56;;;;;;;5.80;3.20;;;;;;;19.41;43.17;100017.83;103347;1286;62550;-82
2023/11/15 03:13:22;;;;;;;5.00;2.90;;;;;;;19.42;43.04;100017.44;103428;1288;61287;-84
2023/11/15 03:15:48;;;;;;;5.10;3.10;;;;;;;19.42;43.06;100014.91;103545;1286;61390;-81
2023/11/15 03:18:17;;;;;;;5.40;3.00;;;;;;;19.42;43.14;100022.02;103289;1289;61368;-81
2023/11/15 03:20:43;;;;;;;5.10;3.20;;;;;;;19.43;43.11;100027.16;103141;1289;61851;-81
2023/11/15 03:23:11;;;;;;;5.40;3.00;;;;;;;19.42;43.12;100024.52;103164;1288;61331;-81
2023/11/15 03:25:37;;;;;;;5.50;2.90;;;;;;;19.43;43.04;100015.21;102884;1289;72341;-81
2023/11/15 03:28:03;;;;;;;5.30;3.20;;;;;;;19.43;43.11;100008.58;103087;1289;61720;-80
2023/11/15 03:30:30;;;;;;;5.40;3.30;;;;;;;19.43;43.10;100001.64;103247;1287;61631;-82
2023/11/15 03:32:56;;;;;;;4.70;3.00;;;;;;;19.43;43.13;100003.56;103201;1289;61494;-81
2023/11/15 03:35:22;;;;;;;5.00;2.80;;;;;;;19.43;43.09;100002.33;103228;1294;61394;-81
2023/11/15 03:37:48;;;;;;;6.50;3.20;;;;;;;19.44;43.09;99989.82;103172;1289;61570;-80
2023/11/15 03:40:15;;;;;;;5.30;3.00;;;;;;;19.43;43.00;99978.04;103143;1292;61559;-81
2023/11/15 03:42:41;;;;;;;5.70;3.20;;;;;;;19.44;43.16;99979.45;103229;1291;61368;-85
2023/11/15 03:45:09;;;;;;;5.60;3.10;;;;;;;19.44;43.01;99976.22;103163;1294;61388;-81
2023/11/15 03:47:34;;;;;;;5.80;3.00;;;;;;;19.44;42.97;99966.39;102852;1297;61393;-81
2023/11/15 03:50:00;;;;;;;5.20;3.20;;;;;;;19.45;42.97;99955.14;103327;1286;61390;-82
2023/11/15 03:52:26;;;;;;;4.90;2.80;;;;;;;19.45;43.10;99945.85;103338;1291;61329;-81
2023/11/15 03:54:53;;;;;;;6.40;3.00;;;;;;;19.45;43.17;99928.02;103316;1286;61397;-81
2023/11/15 03:57:19;;;;;;;5.10;2.90;;;;;;;19.45;43.17;99942.08;103406;1286;61433;-82
2023/11/15 03:59:44;;;;;;;4.60;2.90;;;;;;;19.45;42.98;99945.98;103448;1288;62666;-81
2023/11/15 04:02:10;;;;;;;5.60;3.20;;;;;;;19.46;43.00;99950.42;103338;1291;61714;-82
2023/11/15 04:04:38;;;;;;;5.40;3.10;;;;;;;19.46;43.08;99946.11;103483;1285;61381;-83
2023/11/15 04:07:08;;;;;;;4.30;2.80;;;;;;;19.46;43.02;99948.27;103355;1291;72218;-81
2023/11/15 04:09:34;;;;;;;6.50;3.00;;;;;;;19.46;43.09;99955.41;103380;1285;74480;-81
2023/11/15 04:12:00;;;;;;;5.40;2.90;;;;;;;19.46;43.11;99955.58;103337;1291;62656;-82
2023/11/15 04:14:27;;;;;;;5.00;2.80;;;;;;;19.46;43.11;99950.57;103301;1285;61411;-81
2023/11/15 04:16:53;;;;;;;5.90;2.90;;;;;;;19.47;43.06;99944.47;103312;1285;62456;-81
2023/11/15 04:19:21;;;;;;;7.10;3.40;;;;;;;19.46;43.17;99937.16;103388;1286;61371;-81
2023/11/15 04:22:10;;;;;;;5.10;2.90;;;;;;;19.46;42.98;99934.68;103329;1286;62426;-81
2023/11/15 04:24:39;;;;;;;4.90;2.80;;;;;;;19.46;43.11;99925.58;102678;1295;61577;-81
2023/11/15 04:27:05;;;;;;;5.00;3.10;;;;;;;19.46;43.13;99920.59;102624;1297;72513;-80
2023/11/15 04:29:32;;;;;;;6.80;3.20;;;;;;;19.46;43.05;99910.76;102663;1296;74518;-81
2023/11/15 04:31:58;;;;;;;6.70;3.10;;;;;;;19.47;43.06;99904.63;102635;1294;61473;-82
2023/11/15 04:34:23;;;;;;;5.10;2.80;;;;;;;19.47;43.05;99908.40;102714;1294;61610;-81
2023/11/15 04:36:49;;;;;;;4.70;2.90;;;;;;;19.47;42.94;99914.98;102646;1297;61815;-83
2023/11/15 04:39:15;;;;;;;5.00;2.70;;;;;;;19.48;42.98;99920.45;102653;1296;61394;-81
2023/11/15 04:41:41;;;;;;;4.80;2.80;;;;;;;19.48;42.95;99918.48;102623;1295;61507;-84
2023/11/15 04:44:06;;;;;;;5.00;2.90;;;;;;;19.49;42.99;99914.69;102661;1297;61876;-80
2023/11/15 04:46:35;;;;;;;5.50;3.00;;;;;;;19.48;42.93;99903.45;102646;1295;61356;-81
2023/11/15 04:49:01;;;;;;;5.20;2.70;;;;;;;19.48;42.85;99898.09;102523;1298;73374;-83
2023/11/15 04:51:27;;;;;;;6.00;2.90;;;;;;;19.48;42.91;99892.40;102653;1294;73298;-82
2023/11/15 04:53:53;;;;;;;4.50;2.80;;;;;;;19.49;42.95;99895.36;102546;1298;61562;-82
2023/11/15 04:56:19;;;;;;;6.40;3.20;;;;;;;19.49;42.86;99891.13;102704;1294;61369;-82
2023/11/15 04:58:45;;;;;;;5.70;3.10;;;;;;;19.47;42.92;99890.34;102642;1294;62220;-82
2023/11/15 05:01:12;;;;;;;7.30;3.30;;;;;;;19.46;42.89;99893.30;102659;1297;61381;-81
2023/11/15 05:03:37;;;;;;;5.30;3.20;;;;;;;19.44;42.62;99895.23;103298;1290;61441;-81
2023/11/15 05:06:04;;;;;;;6.20;3.20;;;;;;;19.42;42.70;99899.16;103298;1291;62521;-81
2023/11/15 05:08:29;;;;;;;6.00;3.50;;;;;;;19.40;42.49;99892.86;103243;1286;61673;-82
2023/11/15 05:10:55;;;;;;;6.10;3.20;;;;;;;19.38;42.49;99887.45;103214;1286;62517;-81
2023/11/15 05:13:21;;;;;;;5.90;2.90;;;;;;;19.38;42.47;99875.38;103442;1288;74274;-81
2023/11/15 05:15:46;;;;;;;6.40;3.50;;;;;;;19.37;42.25;99868.27;103446;1285;61394;-81
2023/11/15 05:18:15;;;;;;;6.30;3.10;;;;;;;19.37;42.19;99866.87;103505;1286;61558;-81
2023/11/15 05:20:43;;;;;;;7.10;3.40;;;;;;;19.36;42.19;99873.19;103458;1287;72287;-83
2023/11/15 05:23:09;;;;;;;5.90;3.20;;;;;;;19.36;42.12;99870.14;103499;1291;73416;-82
2023/11/15 05:25:35;;;;;;;6.20;3.50;;;;;;;19.36;42.15;99868.39;103553;1285;61710;-82
2023/11/15 05:28:05;;;;;;;6.50;3.30;;;;;;;19.35;42.10;99856.64;103409;1291;61350;-82
2023/11/15 05:30:30;;;;;;;7.00;3.40;;;;;;;19.35;41.77;99861.36;103442;1288;72253;-82
2023/11/15 05:32:57;;;;;;;6.80;3.10;;;;;;;19.33;41.80;99864.84;103349;1291;62551;-85
2023/11/15 05:35:26;;;;;;;5.30;3.30;;;;;;;19.32;41.74;99868.15;103496;1286;61467;-82
2023/11/15 05:37:51;;;;;;;6.40;2.90;;;;;;;19.31;41.59;99872.13;103305;1286;62451;-84
2023/11/15 05:40:18;;;;;;;5.10;2.80;;;;;;;19.30;41.59;99868.48;104039;1285;61406;-81
2023/11/15 05:42:48;;;;;;;4.90;2.80;;;;;;;19.29;41.49;99861.79;103653;1286;73967;-83
2023/11/15 05:45:15;;;;;;;6.00;3.00;;;;;;;19.29;41.41;99861.83;103904;1288;61371;-82
2023/11/15 05:47:41;;;;;;;6.00;3.10;;;;;;;19.28;41.34;99869.70;103858;1285;61276;-82
2023/11/15 05:50:10;;;;;;;8.00;3.30;;;;;;;19.28;41.23;99875.61;103814;1288;61455;-83
2023/11/15 05:52:39;;;;;;;8.70;3.50;;;;;;;19.27;41.10;99881.73;104209;1289;73379;-81
2023/11/15 05:55:10;;;;;;;9.50;3.30;;;;;;;19.26;41.22;99889.14;104384;1290;61157;-81
2023/11/15 05:57:37;;;;;;;10.70;3.70;;;;;;;19.25;41.17;99889.39;104311;1290;61388;-81
2023/11/15 06:00:14;;;;;;;9.70;3.80;;;;;;;19.22;41.00;99884.44;104100;1285;61289;-82
2023/11/15 06:02:40;;;;;;;8.00;3.50;;;;;;;19.20;41.04;99890.66;104704;1286;75200;-82
2023/11/15 06:05:07;;;;;;;10.30;3.80;;;;;;;19.19;41.07;99897.67;104748;1286;61309;-82
2023/11/15 06:07:33;;;;;;;11.00;3.70;;;;;;;19.19;41.04;99901.60;104585;1289;61297;-82
2023/11/15 06:10:03;;;;;;;12.60;3.60;;;;;;;19.19;40.92;99907.30;104603;1286;72406;-82
2023/11/15 06:12:28;;;;;;;7.00;3.10;;;;;;;19.20;40.91;99922.06;104203;1288;61388;-83
2023/11/15 06:14:54;;;;;;;6.00;3.40;;;;;;;19.20;40.86;99921.16;104342;1286;61990;-82
2023/11/15 06:17:20;;;;;;;9.90;3.30;;;;;;;19.20;40.82;99912.80;104321;1291;61276;-82
2023/11/15 06:19:46;;;;;;;6.70;3.40;;;;;;;19.20;40.69;99914.35;104152;1285;61363;-82
2023/11/15 06:22:14;;;;;;;6.10;3.00;;;;;;;19.21;40.75;99914.14;104363;1286;61884;-81
2023/11/15 06:24:40;;;;;;;10.70;3.70;;;;;;;19.21;40.67;99924.08;104216;1289;61427;-81
2023/11/15 06:27:07;;;;;;;9.80;3.40;;;;;;;19.22;40.61;99941.52;104359;1286;61379;-81
2023/11/15 06:29:33;;;;;;;7.70;3.40;;;;;;;19.23;40.70;99953.39;104408;1288;61752;-81
2023/11/15 06:31:59;;;;;;;6.40;3.10;;;;;;;19.24;40.82;99958.30;104101;1286;61270;-81
2023/11/15 06:34:25;;;;;;;8.00;3.20;;;;;;;19.25;40.73;99963.36;104322;1286;61739;-81
2023/11/15 06:36:53;;;;;;;10.40;3.10;;;;;;;19.26;40.69;99956.20;104245;1291;61471;-82
2023/11/15 06:39:21;;;;;;;9.10;3.60;;;;;;;19.26;40.69;99949.20;104714;1285;59528;-82
2023/11/15 06:41:47;;;;;;;6.80;3.00;;;;;;;19.26;40.77;99947.45;104731;1289;61300;-82
2023/11/15 06:44:12;;;;;;;5.60;3.20;;;;;;;19.26;40.83;99951.92;104585;1285;61385;-82
2023/11/15 06:46:41;;;;;;;10.20;3.70;;;;;;;19.25;40.73;99960.15;104596;1286;61376;-82
2023/11/15 06:49:18;;;;;;;6.10;3.30;;;;;;;19.26;40.51;99970.84;104631;1291;61281;-82
2023/11/15 06:51:48;;;;;;;8.60;3.30;;;;;;;19.26;40.47;99968.15;104724;1290;74707;-82
2023/11/15 06:54:13;;;;;;;9.80;3.40;;;;;;;19.27;40.45;99970.05;104910;1286;61347;-82
2023/11/15 06:56:39;;;;;;;8.00;3.50;;;;;;;19.26;40.37;99974.42;104665;1286;61397;-81
2023/11/15 06:59:05;;;;;;;8.20;3.80;;;;;;;19.25;40.41;99983.95;104822;1286;61462;-82
2023/11/15 07:01:30;;;;;;;10.10;3.90;;;;;;;19.23;40.50;99982.85;104802;1288;60131;-81
2023/11/15 07:03:58;;;;;;;9.90;3.20;;;;;;;19.22;40.65;99981.86;105008;1285;61270;-82
2023/11/15 07:06:26;;;;;;;7.30;3.40;;;;;;;19.21;40.66;99980.09;104995;1286;61297;-82
2023/11/15 07:08:56;;;;;;;7.80;3.30;;;;;;;19.22;40.64;99969.50;104649;1286;72643;-82
2023/11/15 07:11:23;;;;;;;7.50;3.50;;;;;;;19.24;40.70;99965.30;104604;1285;61295;-80
2023/11/15 07:13:48;;;;;;;9.20;3.70;;;;;;;19.24;40.67;99956.66;104784;1288;59845;-81
2023/11/15 07:16:14;;;;;;;8.50;3.50;;;;;;;19.26;40.59;99949.59;104686;1291;61397;-81
2023/11/15 07:18:39;;;;;;;11.00;3.70;;;;;;;19.28;40.73;99941.29;104862;1286;60580;-81
2023/11/15 07:21:07;;;;;;;6.70;3.30;;;;;;;19.29;40.66;99937.29;104754;1288;61370;-81
2023/11/15 07:23:33;;;;;;;8.90;3.60;;;;;;;19.29;40.61;99937.05;104815;1285;61279;-80
2023/11/15 07:26:00;;;;;;;9.20;3.60;;;;;;;19.31;40.70;99933.52;105089;1286;61315;-81
2023/11/15 07:28:26;;;;;;;8.50;3.50;;;;;;;19.33;40.77;99932.48;104839;1287;61167;-80
2023/11/15 07:30:55;;;;;;;9.40;3.70;;;;;;;19.35;40.89;99928.61;104942;1285;61340;-81
2023/11/15 07:33:22;;;;;;;11.10;3.50;;;;;;;19.36;40.86;99930.60;104866;1286;61327;-81
2023/11/15 07:35:48;;;;;;;8.60;3.90;;;;;;;19.38;41.05;99940.67;104957;1289;59957;-80
2023/11/15 07:38:14;;;;;;;10.50;4.00;;;;;;;19.38;41.00;99933.48;105105;1286;61307;-81
2023/11/15 07:40:41;;;;;;;14.90;3.80;;;;;;;19.39;41.21;99930.02;105063;1285;61356;-81
2023/11/15 07:43:07;;;;;;;9.90;3.90;;;;;;;19.40;41.21;99921.05;105394;1286;61486;-81
2023/11/15 07:45:36;;;;;;;14.50;4.00;;;;;;;19.42;41.30;99916.05;105459;1285;61323;-82
2023/11/15 07:48:06;;;;;;;7.30;3.80;;;;;;;19.43;41.39;99917.77;104966;1286;72459;-80
2023/11/15 07:50:32;;;;;;;10.20;3.80;;;;;;;19.44;41.40;99924.46;105376;1285;75470;-81
2023/11/15 07:52:58;;;;;;;11.30;3.60;;;;;;;19.46;41.34;99927.18;105212;1286;61344;-80
2023/11/15 07:55:24;;;;;;;17.60;4.20;;;;;;;19.46;41.45;99928.29;105197;1287;59837;-80
2023/11/15 07:57:52;;;;;;;16.00;5.00;;;;;;;19.40;41.81;99922.48;104977;1291;72531;-81
2023/11/15 08:00:22;;;;;;;15.40;4.70;;;;;;;19.35;42.01;99913.23;105103;1284;61435;-80
2023/11/15 08:02:52;;;;;;;9.30;4.30;;;;;;;19.31;42.26;99906.75;105077;1286;61279;-80
2023/11/15 08:05:21;;;;;;;25.50;4.70;;;;;;;19.30;42.33;99908.60;106380;1286;60132;-80
2023/11/15 08:07:47;;;;;;;12.00;4.30;;;;;;;19.32;42.90;99901.36;106125;1286;71530;-80
2023/11/15 08:10:14;;;;;;;10.40;4.10;;;;;;;19.33;42.95;99893.04;106542;1288;74419;-81
2023/11/15 08:12:43;;;;;;;14.50;4.40;;;;;;;19.34;43.11;99893.54;106362;1286;59949;-81
2023/11/15 08:15:15;;;;;;;11.40;4.70;;;;;;;19.35;43.15;99911.14;106473;1289;60083;-81
2023/11/15 08:17:42;;;;;;;10.70;4.30;;;;;;;19.34;43.16;99929.88;106348;1286;72416;-80
2023/11/15 08:20:09;;;;;;;10.10;4.30;;;;;;;19.35;43.26;99942.50;106553;1286;59546;-81
2023/11/15 08:22:37;;;;;;;11.40;4.20;;;;;;;19.36;43.30;99947.05;106183;1289;61310;-81
2023/11/15 08:25:15;;;;;;;8.60;4.40;;;;;;;19.37;43.24;99955.52;106478;1285;59390;-81
2023/11/15 08:27:42;;;;;;;11.70;5.10;;;;;;;19.38;43.36;99967.08;106248;1286;264585;-81
2023/11/15 08:30:12;;;;;;;11.00;4.70;;;;;;;19.38;43.29;99967.61;106582;1285;59755;-79
2023/11/15 08:32:41;;;;;;;12.70;4.50;;;;;;;19.39;43.46;99981.92;106449;1286;60187;-79
2023/11/15 08:35:07;;;;;;;9.10;4.20;;;;;;;19.40;43.54;99985.43;106446;1285;60267;-80
2023/11/15 08:37:32;;;;;;;10.20;4.40;;;;;;;19.42;43.52;99981.53;106470;1289;59559;-80
2023/11/15 08:40:00;;;;;;;11.20;4.30;;;;;;;19.44;43.69;99975.16;106356;1286;59458;-79
2023/11/15 08:42:26;;;;;;;10.40;4.90;;;;;;;19.46;43.68;99965.39;106440;1286;59068;-80
2023/11/15 08:44:55;;;;;;;12.70;4.70;;;;;;;19.47;43.64;99954.02;106305;1285;59393;-80
2023/11/15 08:47:21;;;;;;;13.30;5.60;;;;;;;19.48;43.74;99953.08;105001;1291;72771;-80
2023/11/15 08:49:50;;;;;;;14.00;5.20;;;;;;;19.49;43.78;99955.52;104909;1290;74943;-81
2023/11/15 08:52:18;;;;;;;11.70;5.10;;;;;;;19.49;43.93;99956.44;105717;1287;61249;-81
2023/11/15 08:54:45;;;;;;;13.50;5.60;;;;;;;19.47;43.94;99951.89;105209;1287;61407;-81
2023/11/15 08:57:16;;;;;;;27.90;5.80;;;;;;;19.47;43.90;99944.92;106405;1286;72462;-82
2023/11/15 08:59:42;;;;;;;23.40;6.10;;;;;;;19.46;44.52;99927.18;106359;1286;74603;-83
2023/11/15 09:02:10;;;;;;;22.40;6.20;;;;;;;19.47;44.80;99916.77;106357;1284;59380;-82
2023/11/15 09:04:37;;;;;;;19.00;5.60;;;;;;;19.47;45.17;99927.48;106431;1285;60190;-82
2023/11/15 09:07:04;;;;;;;17.00;5.50;;;;;;;19.48;45.36;99924.75;106327;1285;72543;-82
2023/11/15 09:09:30;;;;;;;17.30;5.90;;;;;;;19.48;45.43;99937.53;106171;1286;75498;-82
2023/11/15 09:11:56;;;;;;;13.50;5.60;;;;;;;19.48;45.41;99927.59;106520;1286;60067;-82
2023/11/15 09:14:23;;;;;;;15.60;5.90;;;;;;;19.49;45.63;99930.72;106439;1285;58852;-82
2023/11/15 09:16:50;;;;;;;13.30;5.60;;;;;;;19.49;45.55;99937.34;106555;1286;72285;-82
2023/11/15 09:19:20;;;;;;;14.30;5.20;;;;;;;19.49;45.84;99948.91;106587;1286;74179;-82
2023/11/15 09:21:50;;;;;;;16.90;5.50;;;;;;;19.49;45.74;99949.41;106560;1286;58982;-82
2023/11/15 09:24:21;;;;;;;15.70;5.40;;;;;;;19.49;45.58;99950.67;106515;1287;61047;-82
2023/11/15 09:26:50;;;;;;;19.70;5.90;;;;;;;19.50;45.74;99960.45;106575;1286;75425;-81
2023/11/15 09:29:15;;;;;;;14.70;5.30;;;;;;;19.51;45.89;99974.80;106409;1285;75196;-81
2023/11/15 09:31:43;;;;;;;12.60;5.30;;;;;;;19.52;45.88;99978.16;106544;1286;59405;-81
2023/11/15 09:34:11;;;;;;;17.60;5.50;;;;;;;19.53;45.82;99981.98;105148;1285;60476;-80
2023/11/15 09:36:37;;;;;;;16.80;5.50;;;;;;;19.53;45.94;99969.61;104918;1286;72229;-80
2023/11/15 09:39:07;;;;;;;14.80;5.60;;;;;;;19.54;45.90;99960.10;104712;1285;61378;-80
2023/11/15 09:41:33;;;;;;;15.10;5.40;;;;;;;19.56;46.01;99968.01;104358;1291;61080;-80
2023/11/15 09:44:01;;;;;;;15.40;5.60;;;;;;;19.57;46.00;99954.02;104844;1285;61254;-81
2023/11/15 09:46:28;;;;;;;16.70;6.00;;;;;;;19.57;46.23;99946.66;104251;1293;70560;-80
2023/11/15 09:48:54;;;;;;;23.20;6.60;;;;;;;19.57;46.32;99947.01;105067;1289;74439;-82
2023/11/15 09:51:24;;;;;;;13.30;6.50;;;;;;;19.57;46.38;99933.09;105364;1287;61465;-82
2023/11/15 09:53:51;;;;;;;;;;;;;;;19.56;46.77;99933.04;105445;1287;61289;-83
2023/11/15 09:56:20;;;;;;;18.10;7.00;;;;;;;19.52;46.92;99932.05;105615;1286;61339;-83
2023/11/15 09:58:48;;;;;;;16.70;6.20;;;;;;;19.55;47.16;99917.41;105797;1285;76333;-82
2023/11/15 10:01:14;;;;;;;22.30;6.40;;;;;;;19.61;47.66;99907.48;105528;1294;60134;-81
2023/11/15 10:03:43;;;;;;;20.40;6.80;;;;;;;19.66;48.06;99895.29;105545;1286;61362;-82
2023/11/15 10:06:09;;;;;;;22.80;5.50;;;;;;;19.66;48.33;99887.06;105573;1286;72683;-82
2023/11/15 10:08:51;;;;;;;18.80;5.60;;;;;;;19.68;48.60;99884.38;105496;1289;59422;-82
2023/11/15 10:11:16;;;;;;;19.50;6.20;;;;;;;19.74;49.17;99897.52;105491;1285;61269;-82
2023/11/15 10:13:42;;;;;;;19.10;6.20;;;;;;;19.77;49.44;99899.56;105545;1287;59674;-82
2023/11/15 10:16:24;;;;;;;12.80;5.10;;;;;;;19.80;49.60;99908.29;105537;1286;60838;-82
2023/11/15 10:18:55;;;;;;;23.00;5.80;;;;;;;19.84;49.64;99911.95;105501;1290;74428;-82
2023/11/15 10:21:29;;;;;;;12.40;4.90;;;;;;;19.87;49.70;99909.90;106386;1289;59907;-82
2023/11/15 10:24:12;;;;;;;16.90;5.60;;;;;;;19.87;49.45;99900.77;106286;1285;60104;-81
2023/11/15 10:26:38;;;;;;;16.70;5.10;;;;;;;19.86;49.43;99908.72;106414;1289;73568;-82
2023/11/15 10:29:12;;;;;;;13.20;5.80;;;;;;;19.86;49.29;99916.44;106483;1286;59196;-82
2023/11/15 10:31:53;;;;;;;19.40;5.40;;;;;;;19.86;49.36;99908.18;106515;1289;60927;-82
2023/11/15 10:34:20;;;;;;;14.80;5.60;;;;;;;19.87;49.45;99914.15;106270;1286;60056;-82
2023/11/15 10:37:05;;;;;;;16.70;5.80;;;;;;;19.88;49.52;99923.40;106507;1286;72355;-82
2023/11/15 10:39:32;;;;;;;15.60;5.40;;;;;;;19.87;49.37;99927.55;106026;1289;75478;-81
2023/11/15 10:41:59;;;;;;;11.70;5.30;;;;;;;19.86;49.29;99926.92;106459;1285;60115;-82
2023/11/15 10:44:24;;;;;;;21.30;6.40;;;;;;;19.86;49.42;99932.29;106516;1288;60030;-82
2023/11/15 10:46:50;;;;;;;16.90;6.20;;;;;;;19.83;49.30;99943.61;106277;1286;60256;-82
2023/11/15 10:49:17;;;;;;;17.50;5.90;;;;;;;19.80;49.21;99958.33;106414;1289;59086;-82
2023/11/15 10:51:44;;;;;;;10.70;5.90;;;;;;;19.78;49.43;99966.24;106228;1285;58927;-82
2023/11/15 10:54:13;;;;;;;19.20;6.00;;;;;;;19.76;49.25;99970.50;105653;1285;62157;-82
2023/11/15 10:56:43;;;;;;;15.20;6.20;;;;;;;19.73;49.20;99962.16;104865;1285;72330;-81
2023/11/15 10:59:10;;;;;;;15.30;5.40;;;;;;;19.74;49.41;99951.24;104676;1286;75269;-81
2023/11/15 11:01:37;;;;;;;17.80;6.10;;;;;;;19.73;49.49;99952.89;104961;1287;61324;-81
2023/11/15 11:04:05;;;;;;;14.80;6.50;;;;;;;19.71;49.53;99950.96;105414;1286;60853;-82
2023/11/15 11:06:51;;;;;;;17.00;6.40;;;;;;;19.67;49.61;99955.70;105291;1285;72977;-85
2023/11/15 11:09:43;;;;;;;16.80;6.20;;;;;;;19.63;49.63;99952.46;105496;1289;74521;-83
2023/11/15 11:12:11;;;;;;;15.10;7.10;;;;;;;19.62;49.65;99949.16;105519;1288;60201;-82
2023/11/15 11:14:37;;;;;;;14.10;5.90;;;;;;;19.59;49.60;99943.67;105536;1285;61331;-81
2023/11/15 11:17:05;;;;;;;16.00;5.90;;;;;;;19.58;49.74;99931.62;105439;1290;61139;-81
2023/11/15 11:19:31;;;;;;;15.90;6.30;;;;;;;19.59;49.97;99912.62;105243;1287;73351;-81